createdAt,value
2017-11-20T00:01:51.953Z,4.40
2017-11-20T00:03:54.623Z,4.40
2017-11-20T00:05:57.285Z,4.40
2017-11-20T00:08:00.082Z,4.40
2017-11-20T00:10:02.743Z,4.40
2017-11-20T00:12:05.436Z,4.40
2017-11-20T00:14:08.117Z,4.40
2017-11-20T00:16:10.786Z,4.40
2017-11-20T00:18:13.448Z,4.40
2017-11-20T00:20:16.222Z,4.50
2017-11-20T00:22:19.678Z,4.40
2017-11-20T00:24:22.339Z,4.40
2017-11-20T00:26:24.983Z,4.40
2017-11-20T00:28:27.658Z,4.40
2017-11-20T00:30:30.295Z,4.40
2017-11-20T00:32:32.969Z,4.40
2017-11-20T00:34:35.625Z,4.40
2017-11-20T00:36:38.278Z,4.50
2017-11-20T00:38:40.934Z,4.50
2017-11-20T00:40:43.607Z,4.50
2017-11-20T00:42:46.293Z,4.50
2017-11-20T00:44:49.073Z,4.60
2017-11-20T00:46:51.750Z,4.50
2017-11-20T00:48:54.403Z,4.60
2017-11-20T00:50:57.047Z,4.50
2017-11-20T00:52:59.740Z,4.50
2017-11-20T00:55:03.177Z,4.50
2017-11-20T00:57:05.945Z,4.50
2017-11-20T00:59:08.632Z,4.50
2017-11-20T01:01:11.304Z,4.50
2017-11-20T01:03:14.733Z,4.50
2017-11-20T01:05:17.421Z,4.50
2017-11-20T01:07:20.148Z,4.50
2017-11-20T01:09:22.824Z,4.50
2017-11-20T01:11:25.497Z,4.50
2017-11-20T01:13:28.129Z,4.60
2017-11-20T01:15:31.549Z,4.60
2017-11-20T01:17:34.228Z,4.60
2017-11-20T01:19:36.870Z,4.60
2017-11-20T01:21:39.521Z,4.60
2017-11-20T01:23:42.197Z,4.60
2017-11-20T01:25:44.839Z,4.60
2017-11-20T01:27:47.607Z,4.50
2017-11-20T01:29:50.289Z,4.50
2017-11-20T01:31:52.945Z,4.40
2017-11-20T01:33:56.404Z,4.30
2017-11-20T01:35:59.077Z,4.30
2017-11-20T01:38:01.739Z,4.30
2017-11-20T01:40:04.432Z,4.30
2017-11-20T01:42:07.080Z,4.30
2017-11-20T01:44:09.759Z,4.30
2017-11-20T01:46:12.462Z,4.30
2017-11-20T01:48:15.192Z,4.30
2017-11-20T01:50:17.998Z,4.30
2017-11-20T01:52:20.684Z,4.20
2017-11-20T01:54:23.356Z,4.20
2017-11-20T01:56:26.043Z,4.20
2017-11-20T01:58:28.709Z,4.20
2017-11-20T02:00:31.386Z,4.20
2017-11-20T02:02:46.183Z,4.20
2017-11-20T02:04:48.845Z,4.30
2017-11-20T02:06:51.500Z,4.20
2017-11-20T02:08:54.178Z,4.30
2017-11-20T02:10:56.835Z,4.30
2017-11-20T02:12:59.523Z,4.30
2017-11-20T02:15:02.222Z,4.30
2017-11-20T02:17:04.893Z,4.30
2017-11-20T02:19:07.672Z,4.20
2017-11-20T02:21:11.150Z,4.20
2017-11-20T02:23:13.871Z,4.20
2017-11-20T02:25:17.328Z,4.20
2017-11-20T02:27:20.041Z,4.20
2017-11-20T02:29:23.478Z,4.20
2017-11-20T02:31:26.157Z,4.10
2017-11-20T02:33:28.868Z,4.20
2017-11-20T02:35:31.537Z,4.20
2017-11-20T02:37:34.281Z,4.20
2017-11-20T02:39:37.002Z,4.20
2017-11-20T02:41:39.855Z,4.20
2017-11-20T02:43:42.579Z,4.20
2017-11-20T02:45:46.041Z,4.20
2017-11-20T02:47:48.715Z,4.20
2017-11-20T02:49:51.410Z,4.20
2017-11-20T02:51:54.137Z,4.20
2017-11-20T02:53:56.828Z,4.10
2017-11-20T02:55:59.524Z,4.10
2017-11-20T02:58:02.242Z,4.10
2017-11-20T03:00:05.741Z,4.10
2017-11-20T03:02:09.207Z,4.00
2017-11-20T03:04:13.397Z,3.90
2017-11-20T03:06:16.058Z,3.90
2017-11-20T03:08:18.743Z,3.90
2017-11-20T03:10:21.421Z,3.90
2017-11-20T03:12:24.094Z,3.80
2017-11-20T03:14:26.772Z,3.80
2017-11-20T03:16:29.429Z,3.80
2017-11-20T03:18:32.099Z,3.90
2017-11-20T03:20:34.878Z,3.90
2017-11-20T03:22:37.572Z,3.90
2017-11-20T03:24:40.219Z,3.80
2017-11-20T03:26:42.953Z,3.80
2017-11-20T03:28:45.632Z,3.80
2017-11-20T03:30:48.397Z,3.80
2017-11-20T03:32:51.113Z,3.70
2017-11-20T03:34:54.662Z,3.70
2017-11-20T03:36:57.421Z,3.70
2017-11-20T03:39:00.142Z,3.70
2017-11-20T03:41:04.347Z,3.70
2017-11-20T03:43:07.908Z,3.80
2017-11-20T03:45:10.595Z,3.70
2017-11-20T03:47:13.765Z,3.80
2017-11-20T03:49:16.442Z,3.80
2017-11-20T03:51:19.119Z,3.80
2017-11-20T03:53:21.783Z,3.90
2017-11-20T03:55:24.460Z,3.90
2017-11-20T03:57:27.146Z,3.90
2017-11-20T03:59:29.842Z,3.90
2017-11-20T04:01:32.524Z,3.90
2017-11-20T04:03:35.171Z,3.90
2017-11-20T04:05:37.828Z,3.90
2017-11-20T04:07:41.262Z,3.90
2017-11-20T04:09:43.923Z,3.90
2017-11-20T04:11:46.608Z,3.90
2017-11-20T04:13:49.250Z,3.90
2017-11-20T04:15:52.863Z,3.90
2017-11-20T04:17:55.542Z,3.90
2017-11-20T04:19:58.203Z,3.90
2017-11-20T04:22:01.826Z,3.90
2017-11-20T04:24:04.470Z,3.90
2017-11-20T04:26:07.994Z,3.90
2017-11-20T04:28:10.804Z,3.90
2017-11-20T04:30:13.514Z,3.90
2017-11-20T04:32:16.933Z,3.90
2017-11-20T04:34:19.634Z,3.90
2017-11-20T04:36:22.333Z,3.90
2017-11-20T04:38:25.031Z,3.90
2017-11-20T04:40:27.757Z,3.90
2017-11-20T04:42:30.459Z,3.90
2017-11-20T04:44:33.164Z,3.90
2017-11-20T04:46:36.024Z,3.80
2017-11-20T04:48:38.702Z,3.80
2017-11-20T04:50:41.427Z,3.80
2017-11-20T04:52:44.139Z,3.80
2017-11-20T04:54:46.839Z,3.80
2017-11-20T04:56:49.570Z,3.70
2017-11-20T04:58:52.317Z,3.70
2017-11-20T05:00:55.780Z,3.70
2017-11-20T05:02:58.627Z,3.70
2017-11-20T05:05:01.475Z,3.70
2017-11-20T05:07:10.226Z,3.70
2017-11-20T05:09:12.879Z,3.60
2017-11-20T05:11:15.568Z,3.70
2017-11-20T05:13:18.251Z,3.60
2017-11-20T05:15:20.902Z,3.60
2017-11-20T05:17:23.583Z,3.60
2017-11-20T05:19:26.263Z,3.70
2017-11-20T05:21:28.951Z,3.60
2017-11-20T05:23:31.630Z,3.60
2017-11-20T05:25:34.307Z,3.70
2017-11-20T05:27:36.974Z,3.70
2017-11-20T05:29:39.662Z,3.70
2017-11-20T05:31:42.332Z,3.70
2017-11-20T05:33:44.999Z,3.70
2017-11-20T05:35:47.676Z,3.70
2017-11-20T05:37:50.326Z,3.70
2017-11-20T05:39:53.876Z,3.80
2017-11-20T05:41:56.862Z,3.70
2017-11-20T05:43:59.817Z,3.70
2017-11-20T05:46:02.523Z,3.70
2017-11-20T05:48:06.441Z,3.80
2017-11-20T05:50:09.871Z,3.80
2017-11-20T05:52:13.333Z,3.80
2017-11-20T05:54:17.533Z,3.80
2017-11-20T05:56:20.195Z,3.80
2017-11-20T05:58:22.884Z,3.80
2017-11-20T06:00:25.522Z,3.70
2017-11-20T06:02:28.193Z,3.80
2017-11-20T06:04:30.871Z,3.80
2017-11-20T06:06:33.545Z,3.80
2017-11-20T06:08:36.217Z,3.80
2017-11-20T06:10:38.890Z,3.80
2017-11-20T06:12:42.305Z,3.80
2017-11-20T06:14:44.978Z,3.80
2017-11-20T06:16:47.685Z,3.80
2017-11-20T06:18:50.336Z,3.80
2017-11-20T06:20:53.020Z,3.80
2017-11-20T06:22:55.685Z,3.80
2017-11-20T06:24:58.330Z,3.90
2017-11-20T06:27:01.768Z,3.90
2017-11-20T06:29:04.445Z,3.90
2017-11-20T06:31:07.108Z,3.90
2017-11-20T06:33:09.787Z,3.90
2017-11-20T06:35:12.512Z,3.90
2017-11-20T06:37:15.180Z,3.90
2017-11-20T06:39:18.007Z,3.90
2017-11-20T06:41:20.655Z,3.90
2017-11-20T06:43:24.103Z,3.90
2017-11-20T06:45:26.794Z,3.90
2017-11-20T06:47:29.477Z,3.90
2017-11-20T06:49:32.136Z,3.90
2017-11-20T06:51:34.830Z,3.90
2017-11-20T06:53:37.620Z,3.90
2017-11-20T06:55:41.176Z,3.90
2017-11-20T06:57:43.885Z,4.00
2017-11-20T06:59:46.556Z,4.00
2017-11-20T07:01:49.225Z,4.00
2017-11-20T07:03:51.906Z,4.00
2017-11-20T07:05:54.565Z,4.00
2017-11-20T07:07:57.226Z,3.90
2017-11-20T07:09:59.924Z,4.00
2017-11-20T07:12:02.585Z,4.00
2017-11-20T07:14:05.273Z,4.00
2017-11-20T07:16:07.974Z,4.00
2017-11-20T07:18:10.638Z,4.00
2017-11-20T07:20:13.432Z,4.00
2017-11-20T07:22:16.290Z,4.00
2017-11-20T07:24:19.049Z,4.00
2017-11-20T07:26:33.742Z,4.10
2017-11-20T07:28:48.316Z,4.00
2017-11-20T07:31:03.981Z,4.00
2017-11-20T07:33:06.648Z,4.00
2017-11-20T07:35:16.299Z,4.00
2017-11-20T07:37:30.812Z,4.00
2017-11-20T07:39:33.520Z,4.00
2017-11-20T07:41:48.077Z,4.00
2017-11-20T07:43:50.800Z,4.00
2017-11-20T07:45:53.473Z,4.00
2017-11-20T07:47:56.580Z,4.00
2017-11-20T07:49:59.239Z,4.00
2017-11-20T07:52:01.937Z,4.00
2017-11-20T07:54:04.594Z,4.00
2017-11-20T07:56:07.266Z,4.00
2017-11-20T07:58:09.989Z,4.00
2017-11-20T08:00:12.660Z,4.10
2017-11-20T08:02:15.311Z,4.00
2017-11-20T08:04:17.983Z,4.10
2017-11-20T08:06:20.680Z,4.10
2017-11-20T08:08:23.331Z,4.10
2017-11-20T08:10:26.021Z,4.10
2017-11-20T08:12:28.683Z,4.10
2017-11-20T08:14:31.393Z,4.10
2017-11-20T08:16:34.056Z,4.10
2017-11-20T08:18:36.902Z,4.10
2017-11-20T08:20:39.578Z,4.10
2017-11-20T08:22:42.981Z,4.10
2017-11-20T08:24:45.660Z,4.10
2017-11-20T08:26:48.327Z,4.20
2017-11-20T08:28:50.996Z,4.20
2017-11-20T08:30:54.425Z,4.30
2017-11-20T08:32:57.065Z,4.30
2017-11-20T08:35:00.496Z,4.30
2017-11-20T08:37:03.170Z,4.30
2017-11-20T08:39:09.318Z,4.40
2017-11-20T08:41:11.969Z,4.50
2017-11-20T08:43:14.875Z,4.50
2017-11-20T08:45:17.550Z,4.50
2017-11-20T08:47:20.433Z,4.50
2017-11-20T08:49:23.114Z,4.50
2017-11-20T08:51:25.785Z,4.50
2017-11-20T08:53:28.463Z,4.50
2017-11-20T08:55:31.145Z,4.40
2017-11-20T08:57:34.129Z,4.40
2017-11-20T08:59:36.869Z,4.40
2017-11-20T09:01:40.414Z,4.40
2017-11-20T09:03:43.108Z,4.40
2017-11-20T09:05:45.775Z,4.40
2017-11-20T09:07:48.477Z,4.40
2017-11-20T09:09:51.156Z,4.50
2017-11-20T09:11:54.616Z,4.60
2017-11-20T09:13:57.331Z,4.50
2017-11-20T09:16:00.749Z,4.60
2017-11-20T09:18:03.453Z,4.60
2017-11-20T09:20:06.149Z,4.70
2017-11-20T09:22:08.983Z,4.70
2017-11-20T09:24:11.640Z,4.70
2017-11-20T09:26:15.482Z,4.70
2017-11-20T09:28:18.199Z,4.70
2017-11-20T09:30:20.855Z,4.70
2017-11-20T09:32:23.553Z,4.80
2017-11-20T09:34:26.217Z,4.80
2017-11-20T09:36:28.887Z,4.80
2017-11-20T09:38:31.554Z,4.80
2017-11-20T09:40:34.226Z,4.70
2017-11-20T09:42:37.090Z,4.70
2017-11-20T09:44:39.803Z,4.70
2017-11-20T09:46:42.495Z,4.70
2017-11-20T09:48:45.207Z,4.70
2017-11-20T09:50:47.914Z,4.80
2017-11-20T09:52:50.683Z,4.70
2017-11-20T09:54:53.366Z,4.70
2017-11-20T09:56:56.211Z,4.70
2017-11-20T09:58:58.912Z,4.70
2017-11-20T10:01:02.094Z,4.70
2017-11-20T10:03:04.806Z,4.80
2017-11-20T10:05:07.507Z,4.80
2017-11-20T10:07:10.209Z,4.90
2017-11-20T10:09:13.066Z,4.80
2017-11-20T10:11:16.620Z,4.80
2017-11-20T10:13:19.313Z,4.80
2017-11-20T10:15:22.023Z,4.80
2017-11-20T10:17:25.485Z,4.90
2017-11-20T10:19:28.231Z,4.90
2017-11-20T10:21:30.958Z,4.90
2017-11-20T10:23:34.556Z,5.00
2017-11-20T10:25:37.244Z,5.00
2017-11-20T10:27:40.852Z,5.10
2017-11-20T10:29:44.312Z,5.00
2017-11-20T10:31:47.050Z,5.00
2017-11-20T10:33:49.751Z,5.00
2017-11-20T10:35:52.502Z,5.10
2017-11-20T10:37:55.285Z,5.00
2017-11-20T10:39:58.041Z,5.00
2017-11-20T10:42:01.514Z,5.00
2017-11-20T10:44:04.249Z,5.00
2017-11-20T10:46:06.935Z,5.10
2017-11-20T10:48:09.625Z,5.10
2017-11-20T10:50:12.349Z,5.20
2017-11-20T10:52:15.052Z,5.10
2017-11-20T10:54:17.742Z,5.20
2017-11-20T10:56:20.449Z,5.20
2017-11-20T10:58:23.168Z,5.20
2017-11-20T11:00:25.883Z,5.20
2017-11-20T11:02:28.615Z,5.20
2017-11-20T11:04:31.296Z,5.30
2017-11-20T11:06:34.009Z,5.20
2017-11-20T11:08:36.858Z,5.20
2017-11-20T11:10:39.558Z,5.20
2017-11-20T11:12:42.260Z,5.20
2017-11-20T11:14:45.215Z,5.30
2017-11-20T11:16:47.939Z,5.30
2017-11-20T11:18:51.402Z,5.20
2017-11-20T11:20:54.143Z,5.10
2017-11-20T11:22:56.852Z,5.20
2017-11-20T11:24:59.549Z,5.10
2017-11-20T11:27:02.272Z,5.10
2017-11-20T11:29:04.947Z,5.10
2017-11-20T11:31:07.673Z,5.10
2017-11-20T11:33:10.404Z,5.10
2017-11-20T11:35:13.105Z,5.10
2017-11-20T11:37:15.807Z,5.10
2017-11-20T11:39:18.524Z,5.20
2017-11-20T11:41:21.235Z,5.20
2017-11-20T11:43:23.928Z,5.30
2017-11-20T11:45:26.705Z,5.30
2017-11-20T11:47:29.409Z,5.30
2017-11-20T11:49:32.886Z,5.30
2017-11-20T11:51:35.590Z,5.30
2017-11-20T11:53:39.049Z,5.40
2017-11-20T11:55:41.788Z,5.40
2017-11-20T11:57:44.512Z,5.40
2017-11-20T11:59:47.204Z,5.40
2017-11-20T12:01:50.663Z,5.40
2017-11-20T12:03:53.414Z,5.30
2017-11-20T12:05:56.119Z,5.40
2017-11-20T12:07:58.826Z,5.40
2017-11-20T12:10:01.583Z,5.50
2017-11-20T12:12:04.285Z,5.40
2017-11-20T12:14:07.817Z,5.50
2017-11-20T12:16:10.556Z,5.50
2017-11-20T12:18:14.036Z,5.40
2017-11-20T12:20:16.752Z,5.40
2017-11-20T12:22:19.485Z,5.50
2017-11-20T12:24:22.177Z,5.50
2017-11-20T12:26:24.893Z,5.50
2017-11-20T12:28:27.640Z,5.60
2017-11-20T12:30:31.124Z,5.60
2017-11-20T12:32:33.855Z,5.60
2017-11-20T12:34:36.568Z,5.60
2017-11-20T12:36:39.283Z,5.50
2017-11-20T12:38:42.003Z,5.50
2017-11-20T12:40:44.730Z,5.60
2017-11-20T12:42:48.214Z,5.60
2017-11-20T12:44:51.675Z,5.60
2017-11-20T12:46:54.417Z,5.60
2017-11-20T12:48:57.136Z,5.60
2017-11-20T12:50:59.885Z,5.60
2017-11-20T12:53:02.687Z,5.70
2017-11-20T12:55:05.374Z,5.60
2017-11-20T12:57:08.057Z,5.70
2017-11-20T12:59:10.787Z,5.60
2017-11-20T13:01:13.566Z,5.60
2017-11-20T13:03:16.266Z,5.60
2017-11-20T13:05:18.981Z,5.60
2017-11-20T13:07:21.693Z,5.60
2017-11-20T13:09:24.397Z,5.60
2017-11-20T13:11:27.148Z,5.60
2017-11-20T13:13:29.855Z,5.60
2017-11-20T13:15:32.691Z,5.60
2017-11-20T13:17:35.425Z,5.70
2017-11-20T13:19:38.115Z,5.70
2017-11-20T13:21:41.608Z,5.60
2017-11-20T13:23:44.331Z,5.60
2017-11-20T13:25:47.070Z,5.60
2017-11-20T13:27:49.775Z,5.60
2017-11-20T13:29:52.500Z,5.70
2017-11-20T13:31:55.204Z,5.70
2017-11-20T13:33:57.934Z,5.70
2017-11-20T13:36:00.636Z,5.70
2017-11-20T13:38:03.377Z,5.70
2017-11-20T13:40:06.093Z,5.70
2017-11-20T13:42:08.815Z,5.70
2017-11-20T13:44:11.495Z,5.80
2017-11-20T13:46:14.225Z,5.80
2017-11-20T13:48:16.918Z,5.80
2017-11-20T13:50:19.614Z,5.80
2017-11-20T13:52:23.099Z,5.80
2017-11-20T13:54:26.591Z,5.80
2017-11-20T13:56:30.086Z,5.80
2017-11-20T13:58:33.561Z,5.80
2017-11-20T14:00:36.280Z,5.80
2017-11-20T14:02:38.988Z,5.90
2017-11-20T14:04:41.702Z,5.90
2017-11-20T14:06:44.385Z,5.90
2017-11-20T14:08:47.835Z,5.90
2017-11-20T14:10:50.569Z,5.90
2017-11-20T14:12:54.062Z,5.90
2017-11-20T14:14:57.506Z,5.90
2017-11-20T14:17:00.269Z,5.90
2017-11-20T14:19:02.969Z,5.90
2017-11-20T14:21:05.676Z,5.90
2017-11-20T14:23:09.193Z,5.90
2017-11-20T14:25:12.107Z,6.00
2017-11-20T14:27:14.816Z,6.00
2017-11-20T14:29:17.550Z,6.00
2017-11-20T14:31:20.284Z,6.00
2017-11-20T14:33:23.066Z,6.00
2017-11-20T14:35:26.512Z,6.00
2017-11-20T14:37:29.190Z,6.10
2017-11-20T14:39:31.919Z,6.10
2017-11-20T14:41:35.390Z,6.10
2017-11-20T14:43:38.108Z,6.10
2017-11-20T14:45:40.830Z,6.20
2017-11-20T14:47:43.847Z,6.20
2017-11-20T14:49:47.309Z,6.20
2017-11-20T14:51:57.581Z,6.20
2017-11-20T14:54:00.275Z,6.30
2017-11-20T14:56:03.726Z,6.30
2017-11-20T14:58:06.452Z,6.30
2017-11-20T15:00:09.912Z,6.30
2017-11-20T15:02:12.627Z,6.30
2017-11-20T15:04:16.093Z,6.40
2017-11-20T15:06:18.841Z,6.30
2017-11-20T15:08:21.622Z,6.40
2017-11-20T15:10:24.362Z,6.40
2017-11-20T15:12:27.131Z,6.40
2017-11-20T15:14:30.623Z,6.40
2017-11-20T15:16:34.113Z,6.50
2017-11-20T15:18:37.599Z,6.50
2017-11-20T15:20:41.852Z,6.50
2017-11-20T15:22:45.135Z,6.50
2017-11-20T15:24:47.885Z,6.50
2017-11-20T15:26:51.372Z,6.60
2017-11-20T15:28:54.072Z,6.50
2017-11-20T15:30:57.531Z,6.60
2017-11-20T15:33:00.265Z,6.60
2017-11-20T15:35:02.948Z,6.60
2017-11-20T15:37:05.642Z,6.60
2017-11-20T15:39:08.352Z,6.60
2017-11-20T15:41:11.061Z,6.60
2017-11-20T15:43:13.779Z,6.60
2017-11-20T15:45:16.468Z,6.60
2017-11-20T15:47:19.144Z,6.70
2017-11-20T15:49:21.834Z,6.70
2017-11-20T15:51:26.042Z,6.70
2017-11-20T15:53:28.798Z,6.70
2017-11-20T15:55:31.866Z,6.70
2017-11-20T15:57:34.713Z,6.70
2017-11-20T15:59:38.410Z,6.80
2017-11-20T16:01:41.946Z,6.80
2017-11-20T16:03:44.766Z,6.80
2017-11-20T16:05:48.092Z,6.80
2017-11-20T16:07:50.815Z,6.80
2017-11-20T16:09:53.523Z,6.80
2017-11-20T16:11:57.354Z,6.80
2017-11-20T16:14:00.031Z,6.80
2017-11-20T16:16:02.788Z,6.90
2017-11-20T16:18:06.217Z,6.90
2017-11-20T16:20:08.882Z,6.90
2017-11-20T16:22:11.580Z,6.90
2017-11-20T16:24:14.297Z,6.90
2017-11-20T16:26:17.726Z,7.00
2017-11-20T16:28:20.420Z,7.00
2017-11-20T16:30:23.107Z,7.00
2017-11-20T16:32:25.788Z,7.00
2017-11-20T16:34:28.507Z,7.10
2017-11-20T16:36:31.974Z,7.10
2017-11-20T16:38:34.641Z,7.10
2017-11-20T16:40:37.585Z,7.20
2017-11-20T16:42:40.294Z,7.10
2017-11-20T16:44:42.960Z,7.20
2017-11-20T16:46:46.390Z,7.20
2017-11-20T16:48:49.049Z,7.30
2017-11-20T16:50:51.741Z,7.30
2017-11-20T16:52:55.273Z,7.40
2017-11-20T16:54:57.929Z,7.40
2017-11-20T16:57:13.389Z,7.40
2017-11-20T16:59:16.734Z,7.40
2017-11-20T17:01:31.557Z,7.50
2017-11-20T17:03:35.091Z,7.50
2017-11-20T17:05:37.795Z,7.50
2017-11-20T17:07:40.503Z,7.50
2017-11-20T17:09:43.976Z,7.60
2017-11-20T17:11:46.623Z,7.60
2017-11-20T17:13:49.300Z,7.60
2017-11-20T17:15:51.997Z,7.70
2017-11-20T17:17:54.650Z,7.70
2017-11-20T17:19:57.335Z,7.80
2017-11-20T17:22:00.047Z,7.80
2017-11-20T17:24:02.773Z,7.80
2017-11-20T17:26:05.461Z,7.80
2017-11-20T17:28:08.168Z,7.90
2017-11-20T17:30:10.829Z,7.90
2017-11-20T17:32:13.492Z,7.90
2017-11-20T17:34:16.209Z,8.00
2017-11-20T17:36:19.036Z,8.00
2017-11-20T17:38:21.739Z,8.00
2017-11-20T17:40:24.485Z,8.10
2017-11-20T17:42:27.169Z,8.10
2017-11-20T17:44:29.843Z,8.10
2017-11-20T17:46:32.562Z,8.10
2017-11-20T17:48:35.309Z,8.10
2017-11-20T17:50:38.139Z,8.10
2017-11-20T17:52:41.675Z,8.20
2017-11-20T17:54:44.568Z,8.20
2017-11-20T17:56:47.231Z,8.20
2017-11-20T17:58:54.722Z,8.30
2017-11-20T18:00:57.404Z,8.20
2017-11-20T18:03:00.373Z,8.30
2017-11-20T18:05:03.107Z,8.30
2017-11-20T18:07:06.516Z,8.30
2017-11-20T18:09:10.070Z,8.30
2017-11-20T18:11:12.745Z,8.30
2017-11-20T18:13:15.432Z,8.40
2017-11-20T18:15:18.229Z,8.40
2017-11-20T18:17:21.158Z,8.40
2017-11-20T18:19:23.863Z,8.40
2017-11-20T18:21:26.533Z,8.40
2017-11-20T18:23:29.413Z,8.40
2017-11-20T18:25:32.137Z,8.40
2017-11-20T18:27:34.795Z,8.40
2017-11-20T18:29:37.723Z,8.40
2017-11-20T18:31:40.550Z,8.40
2017-11-20T18:33:43.446Z,8.50
2017-11-20T18:35:48.172Z,8.50
2017-11-20T18:37:51.603Z,8.50
2017-11-20T18:39:54.498Z,8.50
2017-11-20T18:41:57.189Z,8.50
2017-11-20T18:43:59.938Z,8.50
2017-11-20T18:46:02.590Z,8.50
2017-11-20T18:48:06.103Z,8.50
2017-11-20T18:50:08.933Z,8.50
2017-11-20T18:52:11.665Z,8.50
2017-11-20T18:54:14.363Z,8.50
2017-11-20T18:56:17.135Z,8.50
2017-11-20T18:58:20.527Z,8.50
2017-11-20T19:00:35.207Z,8.60
2017-11-20T19:02:47.800Z,8.60
2017-11-20T19:05:00.561Z,8.60
2017-11-20T19:07:16.335Z,8.60
2017-11-20T19:09:20.588Z,8.60
2017-11-20T19:11:23.238Z,8.60
2017-11-20T19:13:26.726Z,8.60
2017-11-20T19:15:30.257Z,8.60
2017-11-20T19:17:32.932Z,8.60
2017-11-20T19:19:35.592Z,8.60
2017-11-20T19:21:38.506Z,8.60
2017-11-20T19:23:41.217Z,8.60
2017-11-20T19:25:43.956Z,8.70
2017-11-20T19:27:47.556Z,8.70
2017-11-20T19:29:51.146Z,8.70
2017-11-20T19:31:54.741Z,8.70
2017-11-20T19:33:57.705Z,8.70
2017-11-20T19:36:00.451Z,8.80
2017-11-20T19:38:03.211Z,8.80
2017-11-20T19:40:05.957Z,8.80
2017-11-20T19:42:08.671Z,8.80
2017-11-20T19:44:12.235Z,8.80
2017-11-20T19:46:14.940Z,8.80
2017-11-20T19:48:18.809Z,8.80
2017-11-20T19:50:21.482Z,8.80
2017-11-20T19:52:24.211Z,8.80
2017-11-20T19:54:26.858Z,8.80
2017-11-20T19:56:29.715Z,8.80
2017-11-20T19:58:32.379Z,8.80
2017-11-20T20:00:35.067Z,8.80
2017-11-20T20:02:38.281Z,8.80
2017-11-20T20:04:40.922Z,8.80
2017-11-20T20:06:43.579Z,8.90
2017-11-20T20:08:47.043Z,8.90
2017-11-20T20:10:49.784Z,8.90
2017-11-20T20:12:52.591Z,8.90
2017-11-20T20:15:07.391Z,9.00
2017-11-20T20:17:11.888Z,9.00
2017-11-20T20:19:14.564Z,9.00
2017-11-20T20:21:17.225Z,9.00
2017-11-20T20:23:19.896Z,9.00
2017-11-20T20:25:22.787Z,9.00
2017-11-20T20:27:25.446Z,9.00
2017-11-20T20:29:28.122Z,9.00
2017-11-20T20:31:30.777Z,9.00
2017-11-20T20:33:33.447Z,9.10
2017-11-20T20:35:36.124Z,9.10
2017-11-20T20:37:38.779Z,9.10
2017-11-20T20:39:42.220Z,9.10
2017-11-20T20:41:45.123Z,9.10
2017-11-20T20:43:48.000Z,9.20
2017-11-20T20:45:50.835Z,9.20
2017-11-20T20:47:53.473Z,9.20
2017-11-20T20:49:56.152Z,9.20
2017-11-20T20:51:59.586Z,9.30
2017-11-20T20:54:02.279Z,9.30
2017-11-20T20:56:04.933Z,9.30
2017-11-20T20:58:07.622Z,9.30
2017-11-20T21:00:10.305Z,9.30
2017-11-20T21:02:13.087Z,9.30
2017-11-20T21:04:15.788Z,9.40
2017-11-20T21:06:18.475Z,9.40
2017-11-20T21:08:21.200Z,9.40
2017-11-20T21:10:29.653Z,9.40
2017-11-20T21:12:32.375Z,9.40
2017-11-20T21:14:35.066Z,9.40
2017-11-20T21:16:37.731Z,9.40
2017-11-20T21:18:40.406Z,9.40
2017-11-20T21:20:43.073Z,9.40
2017-11-20T21:22:46.654Z,9.50
2017-11-20T21:24:50.082Z,9.50
2017-11-20T21:26:52.754Z,9.50
2017-11-20T21:28:55.426Z,9.50
2017-11-20T21:30:58.113Z,9.60
2017-11-20T21:33:00.801Z,9.60
2017-11-20T21:35:03.481Z,9.60
2017-11-20T21:37:06.964Z,9.60
2017-11-20T21:39:09.840Z,9.50
2017-11-20T21:41:12.614Z,9.60
2017-11-20T21:43:15.336Z,9.60
2017-11-20T21:45:18.248Z,9.60
2017-11-20T21:47:21.669Z,9.60
2017-11-20T21:49:24.555Z,9.60
2017-11-20T21:51:27.266Z,9.60
2017-11-20T21:53:29.955Z,9.60
2017-11-20T21:55:32.685Z,9.60
2017-11-20T21:57:35.801Z,9.60
2017-11-20T21:59:38.550Z,9.60
2017-11-20T22:01:41.210Z,9.60
2017-11-20T22:03:43.895Z,9.60
2017-11-20T22:05:46.589Z,9.60
2017-11-20T22:07:49.332Z,9.60
2017-11-20T22:09:52.767Z,9.60
2017-11-20T22:11:55.415Z,9.60
2017-11-20T22:13:58.094Z,9.60
2017-11-20T22:16:00.785Z,9.60
2017-11-20T22:18:03.478Z,9.60
2017-11-20T22:20:06.164Z,9.60
2017-11-20T22:22:08.908Z,9.70
2017-11-20T22:24:11.554Z,9.70
2017-11-20T22:26:15.018Z,9.70
2017-11-20T22:28:17.706Z,9.70
2017-11-20T22:30:21.138Z,9.70
2017-11-20T22:32:24.050Z,9.70
2017-11-20T22:34:26.715Z,9.70
2017-11-20T22:36:29.410Z,9.70
2017-11-20T22:38:32.054Z,9.70
2017-11-20T22:40:34.738Z,9.70
2017-11-20T22:42:37.394Z,9.70
2017-11-20T22:44:40.093Z,9.70
2017-11-20T22:46:42.769Z,9.70
2017-11-20T22:48:45.481Z,9.70
2017-11-20T22:50:48.129Z,9.70
2017-11-20T22:52:50.816Z,9.80
2017-11-20T22:54:53.496Z,9.80
2017-11-20T22:56:56.181Z,9.80
2017-11-20T22:58:58.856Z,9.80
2017-11-20T23:01:01.522Z,9.80
2017-11-20T23:03:04.210Z,9.80
2017-11-20T23:05:06.911Z,9.80
2017-11-20T23:07:10.335Z,9.90
2017-11-20T23:09:13.022Z,9.80
2017-11-20T23:11:15.702Z,9.80
2017-11-20T23:13:18.393Z,9.80
2017-11-20T23:15:21.108Z,9.90
2017-11-20T23:17:24.534Z,9.90
2017-11-20T23:19:27.214Z,9.90
2017-11-20T23:21:29.907Z,9.90
2017-11-20T23:23:32.571Z,9.90
2017-11-20T23:25:35.269Z,9.90
2017-11-20T23:27:37.966Z,9.80
2017-11-20T23:29:40.678Z,9.90
2017-11-20T23:31:44.114Z,9.90
2017-11-20T23:33:46.758Z,9.90
2017-11-20T23:35:49.425Z,9.90
2017-11-20T23:37:52.112Z,9.90
2017-11-20T23:39:54.749Z,9.80
2017-11-20T23:41:57.445Z,9.90
2017-11-20T23:44:00.862Z,9.90
2017-11-20T23:46:03.521Z,9.80
2017-11-20T23:48:06.985Z,9.90
2017-11-20T23:50:10.429Z,9.90
2017-11-20T23:52:13.111Z,9.90
2017-11-20T23:54:27.690Z,9.90
2017-11-20T23:56:30.339Z,9.90
2017-11-20T23:58:33.030Z,9.90
